createdAt,value
2023-05-13T00:00:51.873Z,101277.21
2023-05-13T00:03:19.911Z,101281.43
2023-05-13T00:05:48.407Z,101280.71
2023-05-13T00:08:16.551Z,101288.95
2023-05-13T00:10:44.588Z,101285.35
2023-05-13T00:13:12.594Z,101287.41
2023-05-13T00:15:41.692Z,101279.30
2023-05-13T00:18:09.750Z,101286.34
2023-05-13T00:20:37.794Z,101279.44
2023-05-13T00:23:05.730Z,101277.90
2023-05-13T00:25:33.728Z,101280.38
2023-05-13T00:28:01.688Z,101283.75
2023-05-13T00:30:29.650Z,101282.41
2023-05-13T00:32:57.672Z,101282.05
2023-05-13T00:35:25.671Z,101285.78
2023-05-13T00:37:53.672Z,101271.06
2023-05-13T00:40:23.484Z,101283.36
2023-05-13T00:42:52.021Z,101279.66
2023-05-13T00:45:20.004Z,101271.06
2023-05-13T00:47:48.129Z,101280.87
2023-05-13T00:50:16.226Z,101280.05
2023-05-13T00:52:44.250Z,101284.90
2023-05-13T00:55:12.767Z,101278.35
2023-05-13T00:57:41.886Z,101282.90
2023-05-13T01:00:10.722Z,101273.94
2023-05-13T01:02:51.762Z,101283.75
2023-05-13T01:05:46.719Z,101276.30
2023-05-13T01:08:40.735Z,101281.20
2023-05-13T01:11:17.990Z,101279.66
2023-05-13T01:13:46.694Z,101279.34
2023-05-13T01:16:24.458Z,101283.36
2023-05-13T01:18:58.263Z,101281.33
2023-05-13T01:21:28.065Z,101279.34
2023-05-13T01:23:56.965Z,101288.63
2023-05-13T01:26:25.577Z,101285.41
2023-05-13T01:28:53.650Z,101281.69
2023-05-13T01:31:21.623Z,101276.79
2023-05-13T01:33:49.682Z,101265.34
2023-05-13T01:36:17.740Z,101271.91
2023-05-13T01:38:45.723Z,101275.61
2023-05-13T01:41:13.721Z,101280.52
2023-05-13T01:43:41.666Z,101280.16
2023-05-13T01:46:15.748Z,101282.54
2023-05-13T01:48:43.717Z,101271.91
2023-05-13T01:51:11.948Z,101272.60
2023-05-13T01:53:39.966Z,101279.17
2023-05-13T01:56:10.588Z,101279.17
2023-05-13T01:58:38.578Z,101278.84
2023-05-13T02:01:06.559Z,101279.17
2023-05-13T02:03:35.097Z,101280.05
2023-05-13T02:06:03.189Z,101279.66
2023-05-13T02:08:31.218Z,101277.99
2023-05-13T02:10:59.475Z,101287.31
2023-05-13T02:13:27.843Z,101280.38
2023-05-13T02:15:56.261Z,101282.41
2023-05-13T02:18:24.418Z,101289.67
2023-05-13T02:20:52.576Z,101285.62
2023-05-13T02:23:20.510Z,101279.04
2023-05-13T02:25:48.512Z,101280.12
2023-05-13T02:28:16.506Z,101294.93
2023-05-13T02:30:44.421Z,101284.17
2023-05-13T02:33:12.639Z,101286.70
2023-05-13T02:35:40.719Z,101283.00
2023-05-13T02:38:11.120Z,101282.28
2023-05-13T02:40:39.040Z,101290.06
2023-05-13T02:43:07.121Z,101280.12
2023-05-13T02:45:35.204Z,101285.16
2023-05-13T02:48:03.332Z,101290.75
2023-05-13T02:50:31.360Z,101290.75
2023-05-13T02:52:59.354Z,101290.26
2023-05-13T02:55:27.375Z,101280.84
2023-05-13T02:57:55.357Z,101284.53
2023-05-13T03:00:23.457Z,101286.20
2023-05-13T03:02:52.069Z,101295.62
2023-05-13T03:05:20.123Z,101285.35
2023-05-13T03:07:48.144Z,101287.74
2023-05-13T03:10:16.092Z,101291.47
2023-05-13T03:12:44.717Z,101288.23
2023-05-13T03:15:13.185Z,101291.92
2023-05-13T03:17:41.108Z,101287.91
2023-05-13T03:20:09.807Z,101291.92
2023-05-13T03:22:40.051Z,101302.23
2023-05-13T03:25:08.543Z,101305.79
2023-05-13T03:27:36.580Z,101296.70
2023-05-13T03:30:04.629Z,101298.37
2023-05-13T03:32:33.337Z,101303.76
2023-05-13T03:35:04.266Z,101304.94
2023-05-13T03:37:32.495Z,101306.64
2023-05-13T03:40:00.518Z,101310.34
2023-05-13T03:42:29.091Z,101310.66
2023-05-13T03:44:58.353Z,101311.02
2023-05-13T03:47:26.439Z,101313.90
2023-05-13T03:49:54.453Z,101317.59
2023-05-13T03:52:22.405Z,101318.80
2023-05-13T03:54:50.462Z,101317.95
2023-05-13T03:57:18.413Z,101323.21
2023-05-13T03:59:46.426Z,101315.79
2023-05-13T04:02:14.526Z,101320.20
2023-05-13T04:04:42.603Z,101314.95
2023-05-13T04:07:10.594Z,101327.10
2023-05-13T04:09:38.541Z,101330.34
2023-05-13T04:12:06.948Z,101330.67
2023-05-13T04:14:34.958Z,101335.25
2023-05-13T04:17:02.916Z,101342.99
2023-05-13T04:19:30.965Z,101341.16
2023-05-13T04:21:58.928Z,101342.84
2023-05-13T04:24:26.897Z,101340.84
2023-05-13T04:26:54.829Z,101340.34
2023-05-13T04:29:22.792Z,101340.34
2023-05-13T04:31:50.739Z,101343.91
2023-05-13T04:34:18.806Z,101351.66
2023-05-13T04:36:47.895Z,101356.56
2023-05-13T04:39:16.005Z,101362.62
2023-05-13T04:41:43.984Z,101357.25
2023-05-13T04:44:12.292Z,101359.77
2023-05-13T04:46:41.771Z,101363.95
2023-05-13T04:49:09.705Z,101366.83
2023-05-13T04:51:38.041Z,101366.96
2023-05-13T04:54:06.645Z,101377.59
2023-05-13T04:56:35.120Z,101378.41
2023-05-13T04:59:03.125Z,101373.66
2023-05-13T05:01:31.145Z,101369.61
2023-05-13T05:03:59.827Z,101381.09
2023-05-13T05:06:27.855Z,101376.87
2023-05-13T05:08:55.909Z,101379.38
2023-05-13T05:11:23.917Z,101382.76
2023-05-13T05:13:51.950Z,101383.44
2023-05-13T05:16:19.961Z,101387.53
2023-05-13T05:18:48.031Z,101391.23
2023-05-13T05:21:16.107Z,101391.55
2023-05-13T05:23:44.117Z,101395.96
2023-05-13T05:26:12.677Z,101398.48
2023-05-13T05:28:41.319Z,101404.76
2023-05-13T05:31:09.833Z,101399.53
2023-05-13T05:33:38.230Z,101412.31
2023-05-13T05:36:06.474Z,101405.02
2023-05-13T05:38:34.463Z,101413.29
2023-05-13T05:41:02.436Z,101407.21
2023-05-13T05:43:30.500Z,101408.39
2023-05-13T05:45:58.635Z,101414.63
2023-05-13T05:48:26.718Z,101414.47
2023-05-13T05:50:56.833Z,101409.60
2023-05-13T05:53:24.819Z,101418.66
2023-05-13T05:55:53.166Z,101417.84
2023-05-13T05:58:21.361Z,101410.58
2023-05-13T06:00:49.357Z,101424.54
2023-05-13T06:03:17.672Z,101427.77
2023-05-13T06:05:45.785Z,101421.20
2023-05-13T06:08:13.835Z,101422.35
2023-05-13T06:10:42.171Z,101428.95
2023-05-13T06:13:10.241Z,101438.41
2023-05-13T06:15:39.962Z,101434.84
2023-05-13T06:18:08.099Z,101433.14
2023-05-13T06:20:36.286Z,101429.58
2023-05-13T06:23:04.307Z,101431.41
2023-05-13T06:25:32.287Z,101433.89
2023-05-13T06:28:02.740Z,101423.43
2023-05-13T06:30:31.175Z,101436.70
2023-05-13T06:33:01.936Z,101427.38
2023-05-13T06:35:30.713Z,101429.54
2023-05-13T06:37:58.789Z,101432.26
2023-05-13T06:40:26.991Z,101428.10
2023-05-13T06:42:55.058Z,101414.63
2023-05-13T06:45:24.725Z,101421.59
2023-05-13T06:47:53.194Z,101426.50
2023-05-13T06:50:21.585Z,101419.70
2023-05-13T06:52:49.663Z,101419.38
2023-05-13T06:55:20.106Z,101425.91
2023-05-13T06:57:48.519Z,101428.89
2023-05-13T07:00:17.037Z,101435.23
2023-05-13T07:02:45.030Z,101429.48
2023-05-13T07:05:13.221Z,101429.80
2023-05-13T07:07:41.160Z,101431.02
2023-05-13T07:10:09.416Z,101432.35
2023-05-13T07:12:37.395Z,101433.56
2023-05-13T07:15:05.599Z,101436.67
2023-05-13T07:17:33.756Z,101436.80
2023-05-13T07:20:01.715Z,101441.70
2023-05-13T07:22:29.953Z,101435.82
2023-05-13T07:24:58.399Z,101440.23
2023-05-13T07:27:26.495Z,101438.57
2023-05-13T07:29:54.562Z,101440.37
2023-05-13T07:32:22.649Z,101439.05
2023-05-13T07:34:50.715Z,101440.23
2023-05-13T07:37:18.605Z,101439.05
2023-05-13T07:39:46.548Z,101439.55
2023-05-13T07:42:15.022Z,101436.67
2023-05-13T07:44:43.242Z,101441.22
2023-05-13T07:47:12.263Z,101444.19
2023-05-13T07:49:41.761Z,101444.91
2023-05-13T07:52:10.130Z,101441.90
2023-05-13T07:54:38.493Z,101443.83
2023-05-13T07:57:06.668Z,101442.49
2023-05-13T07:59:34.808Z,101446.45
2023-05-13T08:02:03.271Z,101449.32
2023-05-13T08:04:31.490Z,101443.70
2023-05-13T08:06:59.533Z,101447.88
2023-05-13T08:09:27.668Z,101450.53
2023-05-13T08:11:59.372Z,101457.70
2023-05-13T08:14:27.472Z,101463.02
2023-05-13T08:16:56.016Z,101456.32
2023-05-13T08:19:24.359Z,101452.01
2023-05-13T08:21:52.845Z,101448.18
2023-05-13T08:24:21.017Z,101453.94
2023-05-13T08:26:49.257Z,101458.02
2023-05-13T08:29:17.640Z,101449.03
2023-05-13T08:31:45.958Z,101456.23
2023-05-13T08:34:14.206Z,101446.77
2023-05-13T08:36:42.349Z,101449.16
2023-05-13T08:39:10.563Z,101451.91
2023-05-13T08:41:39.160Z,101451.68
2023-05-13T08:44:08.527Z,101448.44
2023-05-13T08:46:36.832Z,101447.00
2023-05-13T08:49:05.284Z,101453.48
2023-05-13T08:51:33.597Z,101456.59
2023-05-13T08:54:02.397Z,101462.56
2023-05-13T08:56:31.188Z,101464.73
2023-05-13T08:58:59.328Z,101464.95
2023-05-13T09:01:27.937Z,101463.19
2023-05-13T09:04:01.821Z,101469.62
2023-05-13T09:06:31.454Z,101470.71
2023-05-13T09:08:59.804Z,101477.18
2023-05-13T09:11:28.315Z,101478.72
2023-05-13T09:14:00.727Z,101476.73
2023-05-13T09:16:32.227Z,101481.95
2023-05-13T09:19:06.367Z,101477.28
2023-05-13T09:21:37.009Z,101482.09
2023-05-13T09:24:12.601Z,101487.58
2023-05-13T09:26:41.994Z,101484.21
2023-05-13T09:29:15.826Z,101485.42
2023-05-13T09:31:44.542Z,101478.72
2023-05-13T09:34:12.943Z,101489.24
2023-05-13T09:36:41.402Z,101489.12
2023-05-13T09:39:09.549Z,101491.05
2023-05-13T09:41:38.148Z,101492.32
2023-05-13T09:44:06.614Z,101485.29
2023-05-13T09:46:35.911Z,101491.50
2023-05-13T09:49:03.988Z,101493.04
2023-05-13T09:51:32.763Z,101480.13
2023-05-13T09:54:07.797Z,101479.30
2023-05-13T09:56:37.032Z,101478.26
2023-05-13T09:59:05.376Z,101489.38
2023-05-13T10:01:33.676Z,101493.95
2023-05-13T10:04:02.137Z,101479.70
2023-05-13T10:06:32.070Z,101495.75
2023-05-13T10:09:01.270Z,101486.27
2023-05-13T10:11:29.454Z,101489.61
2023-05-13T10:14:04.792Z,101490.65
2023-05-13T10:16:36.073Z,101496.51
2023-05-13T10:19:05.494Z,101492.02
2023-05-13T10:21:34.390Z,101497.71
2023-05-13T10:24:03.305Z,101497.26
2023-05-13T10:26:31.480Z,101493.01
2023-05-13T10:28:59.695Z,101491.63
2023-05-13T10:31:28.508Z,101496.93
2023-05-13T10:33:56.841Z,101496.70
2023-05-13T10:37:03.437Z,101491.96
2023-05-13T10:39:50.082Z,101489.38
2023-05-13T10:42:46.383Z,101503.41
2023-05-13T10:45:14.441Z,101503.86
2023-05-13T10:47:42.714Z,101498.66
2023-05-13T10:50:26.802Z,101496.15
2023-05-13T10:52:59.312Z,101491.34
2023-05-13T10:55:28.698Z,101491.63
2023-05-13T10:58:11.133Z,101486.83
2023-05-13T11:00:43.153Z,101493.20
2023-05-13T11:03:13.155Z,101493.17
2023-05-13T11:06:20.966Z,101499.28
2023-05-13T11:08:55.689Z,101490.55
2023-05-13T11:11:24.312Z,101495.00
2023-05-13T11:13:57.507Z,101495.69
2023-05-13T11:16:26.065Z,101489.77
2023-05-13T11:18:54.714Z,101497.81
2023-05-13T11:21:37.165Z,101499.28
2023-05-13T11:24:06.844Z,101493.43
2023-05-13T11:26:48.804Z,101493.34
2023-05-13T11:29:17.356Z,101498.80
2023-05-13T11:31:50.433Z,101500.36
2023-05-13T11:34:19.469Z,101495.33
2023-05-13T11:36:49.122Z,101497.42
2023-05-13T11:39:17.911Z,101498.50
2023-05-13T11:41:50.469Z,101495.79
2023-05-13T11:44:22.181Z,101502.62
2023-05-13T11:47:03.681Z,101500.10
2023-05-13T11:49:36.500Z,101490.88
2023-05-13T11:52:11.973Z,101496.44
2023-05-13T11:54:44.850Z,101486.86
2023-05-13T11:57:34.166Z,101493.56
2023-05-13T12:00:06.748Z,101494.67
2023-05-13T12:02:36.894Z,101500.04
2023-05-13T12:05:09.659Z,101498.50
2023-05-13T12:07:39.113Z,101496.93
2023-05-13T12:10:08.195Z,101503.14
2023-05-13T12:12:38.868Z,101504.13
2023-05-13T12:15:12.377Z,101496.70
2023-05-13T12:17:40.796Z,101506.51
2023-05-13T12:20:13.996Z,101506.15
2023-05-13T12:22:45.411Z,101510.34
2023-05-13T12:25:48.406Z,101513.38
2023-05-13T12:28:23.647Z,101507.23
2023-05-13T12:31:02.364Z,101514.55
2023-05-13T12:33:35.099Z,101506.87
2023-05-13T12:36:37.086Z,101515.24
2023-05-13T12:39:12.331Z,101510.34
2023-05-13T12:41:51.893Z,101513.57
2023-05-13T12:44:20.113Z,101519.82
2023-05-13T12:46:55.046Z,101508.66
2023-05-13T12:49:23.958Z,101511.19
2023-05-13T12:51:53.159Z,101511.19
2023-05-13T12:54:21.470Z,101509.48
2023-05-13T12:56:50.064Z,101511.19
2023-05-13T12:59:20.510Z,101520.87
2023-05-13T13:01:51.296Z,101515.60
2023-05-13T13:04:20.362Z,101525.27
2023-05-13T13:06:48.666Z,101520.96
2023-05-13T13:09:16.704Z,101527.20
2023-05-13T13:11:44.852Z,101526.72
2023-05-13T13:14:13.192Z,101515.73
2023-05-13T13:16:41.390Z,101510.07
2023-05-13T13:19:09.574Z,101520.87
2023-05-13T13:21:37.739Z,101515.60
2023-05-13T13:24:05.865Z,101512.85
2023-05-13T13:26:34.045Z,101509.26
2023-05-13T13:29:02.277Z,101505.43
2023-05-13T13:31:30.614Z,101500.43
2023-05-13T13:34:00.421Z,101503.01
2023-05-13T13:36:28.851Z,101507.59
2023-05-13T13:38:57.209Z,101497.39
2023-05-13T13:41:27.040Z,101500.63
2023-05-13T13:43:55.196Z,101499.71
2023-05-13T13:46:23.744Z,101505.79
2023-05-13T13:48:52.118Z,101499.94
2023-05-13T13:51:20.315Z,101498.73
2023-05-13T13:53:48.569Z,101494.51
2023-05-13T13:56:16.651Z,101498.37
2023-05-13T13:58:44.738Z,101491.41
2023-05-13T14:01:12.991Z,101493.56
2023-05-13T14:03:41.345Z,101493.79
2023-05-13T14:06:09.973Z,101492.02
2023-05-13T14:08:38.437Z,101495.63
2023-05-13T14:11:06.804Z,101494.51
2023-05-13T14:13:34.959Z,101492.94
2023-05-13T14:16:03.191Z,101488.92
2023-05-13T14:18:31.386Z,101491.50
2023-05-13T14:20:59.556Z,101486.14
2023-05-13T14:23:27.670Z,101485.42
2023-05-13T14:25:55.920Z,101497.35
2023-05-13T14:28:25.118Z,101492.35
2023-05-13T14:30:53.358Z,101489.61
2023-05-13T14:33:21.594Z,101490.33
2023-05-13T14:35:49.662Z,101489.48
2023-05-13T14:38:17.760Z,101486.73
2023-05-13T14:40:46.076Z,101491.60
2023-05-13T14:43:14.403Z,101487.91
2023-05-13T14:45:42.587Z,101479.27
2023-05-13T14:48:10.639Z,101487.09
2023-05-13T14:50:40.435Z,101483.13
2023-05-13T14:53:09.911Z,101488.13
2023-05-13T14:55:38.064Z,101475.91
2023-05-13T14:58:06.340Z,101483.55
2023-05-13T15:00:34.503Z,101477.84
2023-05-13T15:03:03.041Z,101480.35
2023-05-13T15:05:31.498Z,101479.14
2023-05-13T15:08:00.149Z,101472.44
2023-05-13T15:10:28.225Z,101471.72
2023-05-13T15:12:56.477Z,101477.57
2023-05-13T15:15:24.788Z,101462.60
2023-05-13T15:17:53.184Z,101472.90
2023-05-13T15:20:21.408Z,101472.18
2023-05-13T15:22:49.841Z,101472.41
2023-05-13T15:25:18.018Z,101468.32
2023-05-13T15:27:46.184Z,101471.91
2023-05-13T15:30:14.671Z,101469.43
2023-05-13T15:32:42.900Z,101464.04
2023-05-13T15:35:11.256Z,101451.45
2023-05-13T15:37:39.520Z,101456.45
2023-05-13T15:40:08.203Z,101451.91
2023-05-13T15:42:36.314Z,101451.91
2023-05-13T15:45:04.345Z,101459.59
2023-05-13T15:47:32.591Z,101455.63
2023-05-13T15:50:00.847Z,101449.06
2023-05-13T15:52:28.929Z,101455.44
2023-05-13T15:54:57.185Z,101456.55
2023-05-13T15:57:25.424Z,101448.87
2023-05-13T15:59:53.639Z,101459.88
2023-05-13T16:02:21.879Z,101456.55
2023-05-13T16:04:50.223Z,101458.22
2023-05-13T16:07:18.212Z,101458.22
2023-05-13T16:09:46.400Z,101453.18
2023-05-13T16:12:14.545Z,101449.62
2023-05-13T16:14:43.216Z,101453.94
2023-05-13T16:17:11.496Z,101464.13
2023-05-13T16:19:39.832Z,101457.89
2023-05-13T16:22:29.395Z,101453.21
2023-05-13T16:25:16.178Z,101450.86
2023-05-13T16:27:49.748Z,101448.08
2023-05-13T16:30:18.559Z,101457.66
2023-05-13T16:32:50.218Z,101446.52
2023-05-13T16:35:18.756Z,101453.58
2023-05-13T16:37:47.950Z,101449.12
2023-05-13T16:40:16.018Z,101443.96
2023-05-13T16:42:44.159Z,101440.76
2023-05-13T16:45:12.585Z,101443.63
2023-05-13T16:47:40.987Z,101442.75
2023-05-13T16:50:10.082Z,101453.90
2023-05-13T16:52:38.269Z,101446.12
2023-05-13T16:55:07.044Z,101448.15
2023-05-13T16:57:35.208Z,101446.74
2023-05-13T17:00:03.473Z,101449.72
2023-05-13T17:02:31.707Z,101447.55
2023-05-13T17:05:00.052Z,101443.37
2023-05-13T17:07:28.188Z,101438.83
2023-05-13T17:09:56.312Z,101449.12
2023-05-13T17:12:24.649Z,101440.49
2023-05-13T17:14:53.342Z,101439.68
2023-05-13T17:17:21.564Z,101443.87
2023-05-13T17:19:49.699Z,101441.09
2023-05-13T17:22:17.892Z,101448.15
2023-05-13T17:24:46.045Z,101449.48
2023-05-13T17:27:14.098Z,101446.61
2023-05-13T17:29:42.211Z,101447.92
2023-05-13T17:32:10.442Z,101440.46
2023-05-13T17:34:38.704Z,101441.31
2023-05-13T17:37:07.135Z,101448.64
2023-05-13T17:39:35.248Z,101451.52
2023-05-13T17:42:03.294Z,101460.02
2023-05-13T17:44:31.528Z,101456.19
2023-05-13T17:46:59.618Z,101461.13
2023-05-13T17:49:28.091Z,101459.91
2023-05-13T17:51:56.365Z,101455.50
2023-05-13T17:54:24.438Z,101458.02
2023-05-13T17:56:52.643Z,101452.73
2023-05-13T17:59:20.759Z,101464.49
2023-05-13T18:01:48.992Z,101452.53
2023-05-13T18:04:17.525Z,101455.96
2023-05-13T18:06:45.724Z,101457.53
2023-05-13T18:09:13.890Z,101457.63
2023-05-13T18:11:42.055Z,101457.53
2023-05-13T18:14:10.211Z,101459.20
2023-05-13T18:16:38.580Z,101454.26
2023-05-13T18:19:08.232Z,101462.44
2023-05-13T18:21:36.541Z,101451.19
2023-05-13T18:24:04.869Z,101451.55
2023-05-13T18:26:33.250Z,101451.55
2023-05-13T18:29:01.479Z,101455.50
2023-05-13T18:31:29.812Z,101455.86
2023-05-13T18:33:58.194Z,101452.04
2023-05-13T18:36:26.357Z,101448.21
2023-05-13T18:38:54.549Z,101450.14
2023-05-13T18:41:23.670Z,101454.55
2023-05-13T18:43:51.825Z,101455.63
2023-05-13T18:46:20.120Z,101456.84
2023-05-13T18:48:48.801Z,101460.54
2023-05-13T18:51:18.097Z,101459.23
2023-05-13T18:53:46.835Z,101460.41
2023-05-13T18:56:14.972Z,101468.42
2023-05-13T18:58:43.170Z,101463.41
2023-05-13T19:01:11.495Z,101466.66
2023-05-13T19:03:39.934Z,101473.23
2023-05-13T19:06:08.202Z,101478.00
2023-05-13T19:08:36.260Z,101479.08
2023-05-13T19:11:04.407Z,101477.41
2023-05-13T19:13:43.418Z,101475.71
2023-05-13T19:16:14.859Z,101483.85
2023-05-13T19:18:43.246Z,101471.88
2023-05-13T19:21:11.444Z,101487.45
2023-05-13T19:23:39.764Z,101482.55
2023-05-13T19:26:07.980Z,101485.42
2023-05-13T19:28:36.914Z,101490.33
2023-05-13T19:31:06.042Z,101496.77
2023-05-13T19:33:34.386Z,101504.52
2023-05-13T19:36:02.819Z,101510.14
2023-05-13T19:38:30.863Z,101505.59
2023-05-13T19:40:59.146Z,101508.37
2023-05-13T19:43:27.320Z,101509.19
2023-05-13T19:45:57.973Z,101504.29
2023-05-13T19:48:27.785Z,101514.42
2023-05-13T19:50:59.337Z,101507.75
2023-05-13T19:53:27.695Z,101508.08
2023-05-13T19:55:57.188Z,101505.92
2023-05-13T19:58:25.350Z,101498.40
2023-05-13T20:00:53.442Z,101500.04
2023-05-13T20:03:21.845Z,101504.13
2023-05-13T20:05:50.185Z,101497.87
2023-05-13T20:08:18.483Z,101500.76
2023-05-13T20:10:46.809Z,101501.48
2023-05-13T20:13:14.944Z,101504.58
2023-05-13T20:15:43.687Z,101500.72
2023-05-13T20:18:11.955Z,101505.13
2023-05-13T20:20:40.286Z,101516.16
2023-05-13T20:23:08.640Z,101516.48
2023-05-13T20:25:37.320Z,101511.58
2023-05-13T20:28:05.453Z,101513.15
2023-05-13T20:30:33.659Z,101515.14
2023-05-13T20:33:01.889Z,101516.84
2023-05-13T20:35:29.990Z,101518.37
2023-05-13T20:37:58.764Z,101513.84
2023-05-13T20:40:26.915Z,101515.01
2023-05-13T20:42:55.125Z,101512.82
2023-05-13T20:45:23.939Z,101506.61
2023-05-13T20:47:52.675Z,101508.14
2023-05-13T20:50:21.198Z,101506.31
2023-05-13T20:52:49.478Z,101504.65
2023-05-13T20:55:18.743Z,101508.24
2023-05-13T20:57:47.174Z,101502.00
2023-05-13T21:00:15.765Z,101507.23
2023-05-13T21:02:43.985Z,101507.23
2023-05-13T21:05:12.525Z,101506.77
2023-05-13T21:07:40.750Z,101513.34
2023-05-13T21:10:09.485Z,101503.89
2023-05-13T21:12:37.729Z,101510.11
2023-05-13T21:15:06.322Z,101503.08
2023-05-13T21:17:34.491Z,101499.32
2023-05-13T21:20:02.700Z,101498.63
2023-05-13T21:22:30.962Z,101493.59
2023-05-13T21:24:59.306Z,101502.20
2023-05-13T21:27:27.370Z,101503.41
2023-05-13T21:29:55.627Z,101501.02
2023-05-13T21:32:23.890Z,101500.66
2023-05-13T21:34:51.980Z,101504.74
2023-05-13T21:37:20.163Z,101500.20
2023-05-13T21:39:48.386Z,101493.14
2023-05-13T21:42:16.692Z,101488.92
2023-05-13T21:44:44.891Z,101486.40
2023-05-13T21:47:13.085Z,101495.49
2023-05-13T21:49:41.230Z,101491.80
2023-05-13T21:52:09.427Z,101494.28
2023-05-13T21:54:37.538Z,101489.77
2023-05-13T21:57:06.120Z,101487.61
2023-05-13T21:59:34.541Z,101486.27
2023-05-13T22:02:02.729Z,101480.91
2023-05-13T22:04:31.019Z,101483.27
2023-05-13T22:06:59.114Z,101479.90
2023-05-13T22:09:27.508Z,101485.48
2023-05-13T22:11:55.698Z,101471.85
2023-05-13T22:14:23.796Z,101467.66
2023-05-13T22:17:07.129Z,101474.47
2023-05-13T22:19:36.458Z,101474.34
2023-05-13T22:22:04.625Z,101473.32
2023-05-13T22:24:32.854Z,101475.22
2023-05-13T22:27:01.750Z,101477.12
2023-05-13T22:29:29.984Z,101479.34
2023-05-13T22:31:58.954Z,101483.72
2023-05-13T22:34:27.729Z,101470.09
2023-05-13T22:36:55.855Z,101472.84
2023-05-13T22:39:23.865Z,101464.56
2023-05-13T22:41:51.992Z,101471.36
2023-05-13T22:44:20.104Z,101456.87
2023-05-13T22:46:48.260Z,101457.20
2023-05-13T22:49:16.482Z,101464.98
2023-05-13T22:51:44.681Z,101453.02
2023-05-13T22:54:12.659Z,101452.56
2023-05-13T22:56:40.807Z,101460.31
2023-05-13T22:59:08.778Z,101456.95
2023-05-13T23:01:37.135Z,101455.47
2023-05-13T23:04:06.892Z,101448.41
2023-05-13T23:06:35.053Z,101448.57
2023-05-13T23:09:03.329Z,101445.23
2023-05-13T23:11:31.408Z,101441.38
2023-05-13T23:13:59.637Z,101445.43
2023-05-13T23:16:27.912Z,101440.07
2023-05-13T23:18:57.315Z,101443.27
2023-05-13T23:21:25.498Z,101442.13
2023-05-13T23:23:54.010Z,101436.45
2023-05-13T23:26:22.146Z,101433.73
2023-05-13T23:28:50.402Z,101429.74
2023-05-13T23:31:18.667Z,101429.41
2023-05-13T23:33:46.928Z,101421.73
2023-05-13T23:36:17.140Z,101413.33
2023-05-13T23:38:45.468Z,101417.38
2023-05-13T23:41:13.520Z,101417.58
2023-05-13T23:43:41.785Z,101416.23
2023-05-13T23:46:09.948Z,101409.99
2023-05-13T23:48:38.147Z,101409.01
2023-05-13T23:51:06.848Z,101405.64
2023-05-13T23:53:34.967Z,101407.51
2023-05-13T23:56:03.173Z,101410.74
2023-05-13T23:58:31.280Z,101407.51
